sensor_id;sensor_type;location;lat;lon;timestamp;P1;durP1;ratioP1;P2;durP2;ratioP2
5989;SDS011;14149;53.562;10.032;2022-10-16T00:01:16;14.37;;;6.40;;
5989;SDS011;14149;53.562;10.032;2022-10-16T00:03:43;11.67;;;7.00;;
5989;SDS011;14149;53.562;10.032;2022-10-16T00:06:09;10.83;;;5.70;;
5989;SDS011;14149;53.562;10.032;2022-10-16T00:08:36;9.30;;;5.83;;
5989;SDS011;14149;53.562;10.032;2022-10-16T00:11:04;9.60;;;5.37;;
5989;SDS011;14149;53.562;10.032;2022-10-16T00:13:31;10.20;;;5.27;;
5989;SDS011;14149;53.562;10.032;2022-10-16T00:15:58;11.63;;;5.10;;
5989;SDS011;14149;53.562;10.032;2022-10-16T00:18:24;10.87;;;5.47;;
5989;SDS011;14149;53.562;10.032;2022-10-16T00:20:50;9.60;;;4.93;;
5989;SDS011;14149;53.562;10.032;2022-10-16T00:23:17;8.03;;;4.23;;
5989;SDS011;14149;53.562;10.032;2022-10-16T00:25:43;7.33;;;4.47;;
5989;SDS011;14149;53.562;10.032;2022-10-16T00:28:09;11.20;;;4.67;;
5989;SDS011;14149;53.562;10.032;2022-10-16T00:30:38;9.90;;;4.53;;
5989;SDS011;14149;53.562;10.032;2022-10-16T00:33:04;7.70;;;3.90;;
5989;SDS011;14149;53.562;10.032;2022-10-16T00:35:30;7.13;;;3.80;;
5989;SDS011;14149;53.562;10.032;2022-10-16T00:37:56;9.27;;;4.00;;
5989;SDS011;14149;53.562;10.032;2022-10-16T00:40:22;8.33;;;3.40;;
5989;SDS011;14149;53.562;10.032;2022-10-16T00:42:48;6.47;;;3.20;;
5989;SDS011;14149;53.562;10.032;2022-10-16T00:45:14;11.10;;;3.90;;
5989;SDS011;14149;53.562;10.032;2022-10-16T00:47:44;10.47;;;3.60;;
5989;SDS011;14149;53.562;10.032;2022-10-16T00:50:32;7.97;;;3.50;;
5989;SDS011;14149;53.562;10.032;2022-10-16T00:52:59;6.33;;;3.10;;
5989;SDS011;14149;53.562;10.032;2022-10-16T00:55:26;7.40;;;3.13;;
5989;SDS011;14149;53.562;10.032;2022-10-16T00:57:54;9.03;;;3.50;;
5989;SDS011;14149;53.562;10.032;2022-10-16T01:00:22;8.43;;;2.90;;
5989;SDS011;14149;53.562;10.032;2022-10-16T01:02:56;7.03;;;3.20;;
5989;SDS011;14149;53.562;10.032;2022-10-16T01:05:22;8.10;;;3.20;;
5989;SDS011;14149;53.562;10.032;2022-10-16T01:12:51;5.40;;;2.30;;
5989;SDS011;14149;53.562;10.032;2022-10-16T01:20:39;6.43;;;2.80;;
5989;SDS011;14149;53.562;10.032;2022-10-16T01:28:45;6.83;;;3.20;;
5989;SDS011;14149;53.562;10.032;2022-10-16T01:31:13;7.50;;;2.70;;
5989;SDS011;14149;53.562;10.032;2022-10-16T01:33:42;7.00;;;2.67;;
5989;SDS011;14149;53.562;10.032;2022-10-16T01:36:31;6.80;;;3.30;;
5989;SDS011;14149;53.562;10.032;2022-10-16T01:38:55;8.30;;;3.43;;
5989;SDS011;14149;53.562;10.032;2022-10-16T01:41:24;7.20;;;2.90;;
5989;SDS011;14149;53.562;10.032;2022-10-16T01:44:01;7.57;;;2.60;;
5989;SDS011;14149;53.562;10.032;2022-10-16T01:46:28;5.93;;;2.90;;
5989;SDS011;14149;53.562;10.032;2022-10-16T01:48:56;6.37;;;2.70;;
5989;SDS011;14149;53.562;10.032;2022-10-16T01:51:23;6.60;;;2.80;;
5989;SDS011;14149;53.562;10.032;2022-10-16T01:53:54;8.43;;;3.00;;
5989;SDS011;14149;53.562;10.032;2022-10-16T01:56:21;8.10;;;2.87;;
5989;SDS011;14149;53.562;10.032;2022-10-16T01:58:49;8.93;;;2.87;;
5989;SDS011;14149;53.562;10.032;2022-10-16T02:01:18;10.87;;;3.20;;
5989;SDS011;14149;53.562;10.032;2022-10-16T02:03:45;6.10;;;2.90;;
5989;SDS011;14149;53.562;10.032;2022-10-16T02:06:12;6.00;;;2.87;;
5989;SDS011;14149;53.562;10.032;2022-10-16T02:08:38;9.93;;;3.10;;
5989;SDS011;14149;53.562;10.032;2022-10-16T02:11:09;6.30;;;3.37;;
5989;SDS011;14149;53.562;10.032;2022-10-16T02:13:55;8.10;;;3.00;;
5989;SDS011;14149;53.562;10.032;2022-10-16T02:16:32;7.90;;;3.43;;
5989;SDS011;14149;53.562;10.032;2022-10-16T02:18:58;6.30;;;3.20;;
5989;SDS011;14149;53.562;10.032;2022-10-16T02:21:28;7.30;;;3.50;;
5989;SDS011;14149;53.562;10.032;2022-10-16T02:23:57;7.53;;;3.10;;
5989;SDS011;14149;53.562;10.032;2022-10-16T02:26:35;7.63;;;2.97;;
5989;SDS011;14149;53.562;10.032;2022-10-16T02:29:04;6.97;;;2.70;;
5989;SDS011;14149;53.562;10.032;2022-10-16T02:31:33;6.97;;;2.87;;
5989;SDS011;14149;53.562;10.032;2022-10-16T02:34:00;7.07;;;3.00;;
5989;SDS011;14149;53.562;10.032;2022-10-16T02:36:27;7.83;;;3.30;;
5989;SDS011;14149;53.562;10.032;2022-10-16T02:38:53;6.47;;;2.73;;
5989;SDS011;14149;53.562;10.032;2022-10-16T02:41:20;6.60;;;2.77;;
5989;SDS011;14149;53.562;10.032;2022-10-16T02:43:47;6.30;;;3.30;;
5989;SDS011;14149;53.562;10.032;2022-10-16T02:46:14;10.23;;;3.20;;
5989;SDS011;14149;53.562;10.032;2022-10-16T02:48:40;6.50;;;2.97;;
5989;SDS011;14149;53.562;10.032;2022-10-16T02:51:06;5.83;;;2.67;;
5989;SDS011;14149;53.562;10.032;2022-10-16T02:53:32;8.80;;;2.97;;
5989;SDS011;14149;53.562;10.032;2022-10-16T02:55:58;8.97;;;3.13;;
5989;SDS011;14149;53.562;10.032;2022-10-16T02:58:24;7.60;;;2.73;;
5989;SDS011;14149;53.562;10.032;2022-10-16T03:00:50;6.50;;;2.60;;
5989;SDS011;14149;53.562;10.032;2022-10-16T03:03:16;7.80;;;3.00;;
5989;SDS011;14149;53.562;10.032;2022-10-16T03:05:43;5.80;;;2.73;;
5989;SDS011;14149;53.562;10.032;2022-10-16T03:08:10;8.07;;;3.30;;
5989;SDS011;14149;53.562;10.032;2022-10-16T03:10:36;7.53;;;2.97;;
5989;SDS011;14149;53.562;10.032;2022-10-16T03:13:03;6.90;;;2.67;;
5989;SDS011;14149;53.562;10.032;2022-10-16T03:15:29;7.40;;;2.70;;
5989;SDS011;14149;53.562;10.032;2022-10-16T03:17:58;5.93;;;2.53;;
5989;SDS011;14149;53.562;10.032;2022-10-16T03:20:24;7.80;;;2.70;;
5989;SDS011;14149;53.562;10.032;2022-10-16T03:22:50;6.23;;;2.70;;
5989;SDS011;14149;53.562;10.032;2022-10-16T03:25:16;7.23;;;2.87;;
5989;SDS011;14149;53.562;10.032;2022-10-16T03:27:43;7.40;;;2.90;;
5989;SDS011;14149;53.562;10.032;2022-10-16T03:30:09;11.33;;;3.20;;
5989;SDS011;14149;53.562;10.032;2022-10-16T03:32:35;6.40;;;2.83;;
5989;SDS011;14149;53.562;10.032;2022-10-16T03:35:01;6.87;;;3.27;;
5989;SDS011;14149;53.562;10.032;2022-10-16T03:37:27;7.23;;;2.93;;
5989;SDS011;14149;53.562;10.032;2022-10-16T03:39:53;6.03;;;2.50;;
5989;SDS011;14149;53.562;10.032;2022-10-16T03:42:19;6.93;;;2.97;;
5989;SDS011;14149;53.562;10.032;2022-10-16T03:44:46;9.80;;;3.13;;
5989;SDS011;14149;53.562;10.032;2022-10-16T03:47:12;6.53;;;3.17;;
5989;SDS011;14149;53.562;10.032;2022-10-16T03:49:38;6.83;;;3.30;;
5989;SDS011;14149;53.562;10.032;2022-10-16T03:52:04;6.40;;;2.77;;
5989;SDS011;14149;53.562;10.032;2022-10-16T03:54:30;10.07;;;3.27;;
5989;SDS011;14149;53.562;10.032;2022-10-16T03:56:56;6.90;;;3.00;;
5989;SDS011;14149;53.562;10.032;2022-10-16T03:59:22;10.73;;;3.20;;
5989;SDS011;14149;53.562;10.032;2022-10-16T04:01:48;7.63;;;2.90;;
5989;SDS011;14149;53.562;10.032;2022-10-16T04:04:14;6.03;;;2.70;;
5989;SDS011;14149;53.562;10.032;2022-10-16T04:06:40;10.83;;;2.50;;
5989;SDS011;14149;53.562;10.032;2022-10-16T04:09:06;6.80;;;2.90;;
5989;SDS011;14149;53.562;10.032;2022-10-16T04:11:32;7.97;;;2.67;;
5989;SDS011;14149;53.562;10.032;2022-10-16T04:13:58;6.00;;;2.80;;
5989;SDS011;14149;53.562;10.032;2022-10-16T04:16:24;6.73;;;2.70;;
5989;SDS011;14149;53.562;10.032;2022-10-16T04:18:50;6.80;;;3.00;;
5989;SDS011;14149;53.562;10.032;2022-10-16T04:21:16;7.50;;;2.97;;
5989;SDS011;14149;53.562;10.032;2022-10-16T04:23:43;7.00;;;3.13;;
5989;SDS011;14149;53.562;10.032;2022-10-16T04:26:09;7.83;;;2.73;;
5989;SDS011;14149;53.562;10.032;2022-10-16T04:28:35;7.37;;;2.60;;
5989;SDS011;14149;53.562;10.032;2022-10-16T04:31:05;6.03;;;2.40;;
5989;SDS011;14149;53.562;10.032;2022-10-16T04:33:31;7.10;;;2.50;;
5989;SDS011;14149;53.562;10.032;2022-10-16T04:35:57;10.83;;;3.27;;
5989;SDS011;14149;53.562;10.032;2022-10-16T04:38:24;7.73;;;3.00;;
5989;SDS011;14149;53.562;10.032;2022-10-16T04:40:50;6.53;;;2.53;;
5989;SDS011;14149;53.562;10.032;2022-10-16T04:43:16;7.00;;;2.63;;
5989;SDS011;14149;53.562;10.032;2022-10-16T04:45:42;7.50;;;2.83;;
5989;SDS011;14149;53.562;10.032;2022-10-16T04:48:09;6.00;;;2.53;;
5989;SDS011;14149;53.562;10.032;2022-10-16T04:50:35;8.23;;;2.60;;
5989;SDS011;14149;53.562;10.032;2022-10-16T04:53:01;7.77;;;2.90;;
5989;SDS011;14149;53.562;10.032;2022-10-16T04:55:27;5.80;;;2.60;;
5989;SDS011;14149;53.562;10.032;2022-10-16T04:57:53;7.90;;;2.90;;
5989;SDS011;14149;53.562;10.032;2022-10-16T05:00:19;7.00;;;2.53;;
5989;SDS011;14149;53.562;10.032;2022-10-16T05:02:45;6.17;;;2.87;;
5989;SDS011;14149;53.562;10.032;2022-10-16T05:05:11;7.53;;;2.87;;
5989;SDS011;14149;53.562;10.032;2022-10-16T05:07:39;12.33;;;2.87;;
5989;SDS011;14149;53.562;10.032;2022-10-16T05:10:05;7.37;;;3.03;;
5989;SDS011;14149;53.562;10.032;2022-10-16T05:12:31;5.47;;;2.57;;
5989;SDS011;14149;53.562;10.032;2022-10-16T05:14:57;6.03;;;2.70;;
5989;SDS011;14149;53.562;10.032;2022-10-16T05:17:26;7.60;;;3.37;;
5989;SDS011;14149;53.562;10.032;2022-10-16T05:19:52;7.80;;;3.10;;
5989;SDS011;14149;53.562;10.032;2022-10-16T05:22:19;7.40;;;2.90;;
5989;SDS011;14149;53.562;10.032;2022-10-16T05:24:45;6.63;;;3.30;;
5989;SDS011;14149;53.562;10.032;2022-10-16T05:27:11;9.43;;;3.23;;
5989;SDS011;14149;53.562;10.032;2022-10-16T05:29:44;9.73;;;3.27;;
5989;SDS011;14149;53.562;10.032;2022-10-16T05:32:10;7.50;;;3.37;;
5989;SDS011;14149;53.562;10.032;2022-10-16T05:34:36;8.80;;;3.10;;
5989;SDS011;14149;53.562;10.032;2022-10-16T05:37:02;6.00;;;2.80;;
5989;SDS011;14149;53.562;10.032;2022-10-16T05:39:28;10.13;;;2.83;;
5989;SDS011;14149;53.562;10.032;2022-10-16T05:41:54;6.67;;;2.93;;
5989;SDS011;14149;53.562;10.032;2022-10-16T05:44:20;8.80;;;3.40;;
5989;SDS011;14149;53.562;10.032;2022-10-16T05:46:46;5.90;;;3.00;;
5989;SDS011;14149;53.562;10.032;2022-10-16T05:49:12;6.13;;;2.57;;
5989;SDS011;14149;53.562;10.032;2022-10-16T05:51:39;7.20;;;3.10;;
5989;SDS011;14149;53.562;10.032;2022-10-16T05:54:06;6.60;;;3.33;;
5989;SDS011;14149;53.562;10.032;2022-10-16T05:56:32;10.50;;;3.03;;
5989;SDS011;14149;53.562;10.032;2022-10-16T05:58:58;8.63;;;3.63;;
5989;SDS011;14149;53.562;10.032;2022-10-16T06:01:24;8.73;;;3.70;;
5989;SDS011;14149;53.562;10.032;2022-10-16T06:03:51;9.13;;;3.77;;
5989;SDS011;14149;53.562;10.032;2022-10-16T06:06:18;8.17;;;3.00;;
5989;SDS011;14149;53.562;10.032;2022-10-16T06:08:46;8.13;;;3.03;;
5989;SDS011;14149;53.562;10.032;2022-10-16T06:11:13;7.33;;;2.87;;
5989;SDS011;14149;53.562;10.032;2022-10-16T06:13:40;5.60;;;3.00;;
5989;SDS011;14149;53.562;10.032;2022-10-16T06:16:07;7.20;;;2.93;;
5989;SDS011;14149;53.562;10.032;2022-10-16T06:18:33;6.40;;;3.10;;
5989;SDS011;14149;53.562;10.032;2022-10-16T06:20:59;7.27;;;3.10;;
5989;SDS011;14149;53.562;10.032;2022-10-16T06:23:25;7.90;;;3.00;;
5989;SDS011;14149;53.562;10.032;2022-10-16T06:25:53;10.43;;;3.50;;
5989;SDS011;14149;53.562;10.032;2022-10-16T06:28:19;9.10;;;3.20;;
5989;SDS011;14149;53.562;10.032;2022-10-16T06:30:45;8.10;;;3.90;;
5989;SDS011;14149;53.562;10.032;2022-10-16T06:33:12;7.70;;;2.97;;
5989;SDS011;14149;53.562;10.032;2022-10-16T06:35:38;8.90;;;3.40;;
5989;SDS011;14149;53.562;10.032;2022-10-16T06:38:04;5.90;;;3.10;;
5989;SDS011;14149;53.562;10.032;2022-10-16T06:40:30;6.83;;;3.23;;
5989;SDS011;14149;53.562;10.032;2022-10-16T06:42:56;9.33;;;3.47;;
5989;SDS011;14149;53.562;10.032;2022-10-16T06:45:22;8.37;;;3.53;;
5989;SDS011;14149;53.562;10.032;2022-10-16T06:47:48;6.67;;;3.13;;
5989;SDS011;14149;53.562;10.032;2022-10-16T06:50:14;8.70;;;3.50;;
5989;SDS011;14149;53.562;10.032;2022-10-16T06:52:40;6.93;;;3.47;;
5989;SDS011;14149;53.562;10.032;2022-10-16T06:55:06;8.50;;;3.30;;
5989;SDS011;14149;53.562;10.032;2022-10-16T06:57:33;7.67;;;3.40;;
5989;SDS011;14149;53.562;10.032;2022-10-16T06:59:59;8.60;;;3.43;;
5989;SDS011;14149;53.562;10.032;2022-10-16T07:02:25;8.10;;;3.60;;
5989;SDS011;14149;53.562;10.032;2022-10-16T07:04:51;8.20;;;3.77;;
5989;SDS011;14149;53.562;10.032;2022-10-16T07:07:17;12.83;;;3.90;;
5989;SDS011;14149;53.562;10.032;2022-10-16T07:09:43;7.50;;;3.73;;
5989;SDS011;14149;53.562;10.032;2022-10-16T07:12:09;7.90;;;3.73;;
5989;SDS011;14149;53.562;10.032;2022-10-16T07:14:35;9.90;;;3.83;;
5989;SDS011;14149;53.562;10.032;2022-10-16T07:17:02;8.83;;;3.83;;
5989;SDS011;14149;53.562;10.032;2022-10-16T07:19:28;9.10;;;4.40;;
5989;SDS011;14149;53.562;10.032;2022-10-16T07:21:54;7.90;;;3.20;;
5989;SDS011;14149;53.562;10.032;2022-10-16T07:24:21;9.50;;;4.80;;
5989;SDS011;14149;53.562;10.032;2022-10-16T07:26:47;8.33;;;4.10;;
5989;SDS011;14149;53.562;10.032;2022-10-16T07:29:17;8.00;;;4.30;;
5989;SDS011;14149;53.562;10.032;2022-10-16T07:31:44;9.77;;;3.47;;
5989;SDS011;14149;53.562;10.032;2022-10-16T07:34:13;7.83;;;3.90;;
5989;SDS011;14149;53.562;10.032;2022-10-16T07:36:40;14.47;;;4.77;;
5989;SDS011;14149;53.562;10.032;2022-10-16T07:39:06;11.20;;;3.67;;
5989;SDS011;14149;53.562;10.032;2022-10-16T07:41:32;10.33;;;4.00;;
5989;SDS011;14149;53.562;10.032;2022-10-16T07:44:01;9.37;;;4.30;;
5989;SDS011;14149;53.562;10.032;2022-10-16T07:46:28;7.53;;;3.70;;
5989;SDS011;14149;53.562;10.032;2022-10-16T07:48:54;6.47;;;3.50;;
5989;SDS011;14149;53.562;10.032;2022-10-16T07:51:21;10.37;;;4.27;;
5989;SDS011;14149;53.562;10.032;2022-10-16T07:53:48;7.40;;;3.60;;
5989;SDS011;14149;53.562;10.032;2022-10-16T07:56:15;11.03;;;5.30;;
5989;SDS011;14149;53.562;10.032;2022-10-16T07:58:41;10.00;;;3.63;;
5989;SDS011;14149;53.562;10.032;2022-10-16T08:01:08;6.70;;;3.20;;
5989;SDS011;14149;53.562;10.032;2022-10-16T08:03:34;8.53;;;4.00;;
5989;SDS011;14149;53.562;10.032;2022-10-16T08:06:01;8.97;;;3.90;;
5989;SDS011;14149;53.562;10.032;2022-10-16T08:08:27;6.70;;;3.10;;
5989;SDS011;14149;53.562;10.032;2022-10-16T08:10:53;6.20;;;2.63;;
5989;SDS011;14149;53.562;10.032;2022-10-16T08:13:19;10.70;;;4.10;;
5989;SDS011;14149;53.562;10.032;2022-10-16T08:15:46;6.30;;;3.13;;
5989;SDS011;14149;53.562;10.032;2022-10-16T08:18:12;6.60;;;3.17;;
5989;SDS011;14149;53.562;10.032;2022-10-16T08:20:39;7.30;;;3.23;;
5989;SDS011;14149;53.562;10.032;2022-10-16T08:23:05;7.00;;;3.47;;
5989;SDS011;14149;53.562;10.032;2022-10-16T08:25:33;8.23;;;4.20;;
5989;SDS011;14149;53.562;10.032;2022-10-16T08:28:00;7.97;;;3.30;;
5989;SDS011;14149;53.562;10.032;2022-10-16T08:30:26;8.20;;;3.07;;
5989;SDS011;14149;53.562;10.032;2022-10-16T08:32:52;7.00;;;3.03;;
5989;SDS011;14149;53.562;10.032;2022-10-16T08:35:18;7.20;;;3.07;;
5989;SDS011;14149;53.562;10.032;2022-10-16T08:37:44;7.13;;;2.63;;
5989;SDS011;14149;53.562;10.032;2022-10-16T08:40:15;14.73;;;7.30;;
5989;SDS011;14149;53.562;10.032;2022-10-16T08:48:14;8.07;;;3.17;;
5989;SDS011;14149;53.562;10.032;2022-10-16T08:50:42;9.70;;;3.27;;
5989;SDS011;14149;53.562;10.032;2022-10-16T08:53:15;6.90;;;3.07;;
5989;SDS011;14149;53.562;10.032;2022-10-16T08:58:14;7.40;;;3.53;;
5989;SDS011;14149;53.562;10.032;2022-10-16T09:00:40;6.80;;;2.73;;
5989;SDS011;14149;53.562;10.032;2022-10-16T09:03:16;9.03;;;3.03;;
5989;SDS011;14149;53.562;10.032;2022-10-16T09:08:52;7.57;;;3.47;;
5989;SDS011;14149;53.562;10.032;2022-10-16T09:13:59;7.30;;;2.83;;
5989;SDS011;14149;53.562;10.032;2022-10-16T09:16:30;11.00;;;3.53;;
5989;SDS011;14149;53.562;10.032;2022-10-16T09:21:38;8.87;;;3.97;;
5989;SDS011;14149;53.562;10.032;2022-10-16T09:26:36;7.73;;;3.00;;
5989;SDS011;14149;53.562;10.032;2022-10-16T09:29:02;10.93;;;3.80;;
5989;SDS011;14149;53.562;10.032;2022-10-16T09:31:28;6.37;;;2.60;;
5989;SDS011;14149;53.562;10.032;2022-10-16T09:33:55;10.47;;;3.03;;
5989;SDS011;14149;53.562;10.032;2022-10-16T09:36:23;9.53;;;2.80;;
5989;SDS011;14149;53.562;10.032;2022-10-16T09:39:00;9.77;;;3.23;;
5989;SDS011;14149;53.562;10.032;2022-10-16T09:41:26;9.40;;;2.40;;
5989;SDS011;14149;53.562;10.032;2022-10-16T09:43:56;6.50;;;2.40;;
5989;SDS011;14149;53.562;10.032;2022-10-16T09:46:30;6.77;;;2.70;;
5989;SDS011;14149;53.562;10.032;2022-10-16T09:51:41;7.33;;;2.80;;
5989;SDS011;14149;53.562;10.032;2022-10-16T09:56:34;6.10;;;2.57;;
5989;SDS011;14149;53.562;10.032;2022-10-16T09:59:14;7.53;;;2.70;;
5989;SDS011;14149;53.562;10.032;2022-10-16T10:01:41;8.43;;;2.93;;
5989;SDS011;14149;53.562;10.032;2022-10-16T10:04:08;5.90;;;2.20;;
5989;SDS011;14149;53.562;10.032;2022-10-16T10:06:35;8.60;;;2.83;;
5989;SDS011;14149;53.562;10.032;2022-10-16T10:09:04;6.90;;;2.97;;
5989;SDS011;14149;53.562;10.032;2022-10-16T10:14:28;8.70;;;2.80;;
5989;SDS011;14149;53.562;10.032;2022-10-16T10:17:07;6.50;;;2.80;;
5989;SDS011;14149;53.562;10.032;2022-10-16T10:19:38;8.77;;;2.77;;
5989;SDS011;14149;53.562;10.032;2022-10-16T10:22:18;10.77;;;4.37;;
5989;SDS011;14149;53.562;10.032;2022-10-16T10:24:54;12.37;;;3.00;;
5989;SDS011;14149;53.562;10.032;2022-10-16T10:27:21;10.73;;;2.80;;
5989;SDS011;14149;53.562;10.032;2022-10-16T10:33:03;6.53;;;2.40;;
5989;SDS011;14149;53.562;10.032;2022-10-16T10:35:24;10.80;;;4.23;;
5989;SDS011;14149;53.562;10.032;2022-10-16T10:48:12;9.33;;;3.13;;
5989;SDS011;14149;53.562;10.032;2022-10-16T10:50:45;10.10;;;2.43;;
5989;SDS011;14149;53.562;10.032;2022-10-16T11:03:35;10.93;;;2.53;;
5989;SDS011;14149;53.562;10.032;2022-10-16T11:06:10;6.20;;;2.40;;
5989;SDS011;14149;53.562;10.032;2022-10-16T11:08:50;10.53;;;2.73;;
5989;SDS011;14149;53.562;10.032;2022-10-16T11:18:47;6.60;;;2.87;;
5989;SDS011;14149;53.562;10.032;2022-10-16T11:21:15;6.37;;;2.37;;
5989;SDS011;14149;53.562;10.032;2022-10-16T11:23:47;7.30;;;2.30;;
5989;SDS011;14149;53.562;10.032;2022-10-16T11:26:26;6.30;;;2.17;;
5989;SDS011;14149;53.562;10.032;2022-10-16T11:28:54;5.93;;;2.30;;
5989;SDS011;14149;53.562;10.032;2022-10-16T11:31:27;11.20;;;3.00;;
5989;SDS011;14149;53.562;10.032;2022-10-16T11:36:36;9.50;;;2.83;;
5989;SDS011;14149;53.562;10.032;2022-10-16T11:39:24;7.87;;;2.30;;
5989;SDS011;14149;53.562;10.032;2022-10-16T11:41:52;6.80;;;2.27;;
5989;SDS011;14149;53.562;10.032;2022-10-16T11:49:33;9.47;;;2.33;;
5989;SDS011;14149;53.562;10.032;2022-10-16T11:52:05;6.83;;;2.27;;
5989;SDS011;14149;53.562;10.032;2022-10-16T11:54:34;11.60;;;2.10;;
5989;SDS011;14149;53.562;10.032;2022-10-16T11:57:02;5.83;;;2.43;;
5989;SDS011;14149;53.562;10.032;2022-10-16T11:59:33;8.77;;;2.90;;
5989;SDS011;14149;53.562;10.032;2022-10-16T12:02:13;8.20;;;2.97;;
5989;SDS011;14149;53.562;10.032;2022-10-16T12:04:50;9.57;;;2.87;;
5989;SDS011;14149;53.562;10.032;2022-10-16T12:07:24;9.90;;;3.00;;
5989;SDS011;14149;53.562;10.032;2022-10-16T12:09:53;6.90;;;2.57;;
5989;SDS011;14149;53.562;10.032;2022-10-16T12:12:27;7.00;;;2.57;;
5989;SDS011;14149;53.562;10.032;2022-10-16T12:15:01;7.23;;;2.67;;
5989;SDS011;14149;53.562;10.032;2022-10-16T12:17:37;6.13;;;2.53;;
5989;SDS011;14149;53.562;10.032;2022-10-16T12:20:22;6.50;;;2.50;;
5989;SDS011;14149;53.562;10.032;2022-10-16T12:22:54;7.77;;;2.57;;
5989;SDS011;14149;53.562;10.032;2022-10-16T12:25:37;8.53;;;2.90;;
5989;SDS011;14149;53.562;10.032;2022-10-16T12:30:40;8.83;;;3.30;;
5989;SDS011;14149;53.562;10.032;2022-10-16T12:33:21;9.50;;;3.03;;
5989;SDS011;14149;53.562;10.032;2022-10-16T12:35:48;8.73;;;3.00;;
5989;SDS011;14149;53.562;10.032;2022-10-16T12:40:44;7.40;;;3.10;;
5989;SDS011;14149;53.562;10.032;2022-10-16T12:43:11;8.93;;;3.07;;
5989;SDS011;14149;53.562;10.032;2022-10-16T12:45:38;12.50;;;3.43;;
5989;SDS011;14149;53.562;10.032;2022-10-16T12:48:04;8.17;;;2.50;;
5989;SDS011;14149;53.562;10.032;2022-10-16T12:50:44;7.50;;;2.60;;
5989;SDS011;14149;53.562;10.032;2022-10-16T12:53:20;10.87;;;2.70;;
5989;SDS011;14149;53.562;10.032;2022-10-16T12:55:50;12.00;;;2.50;;
5989;SDS011;14149;53.562;10.032;2022-10-16T12:58:36;7.20;;;2.73;;
5989;SDS011;14149;53.562;10.032;2022-10-16T13:01:50;8.00;;;3.30;;
5989;SDS011;14149;53.562;10.032;2022-10-16T13:16:51;6.63;;;3.27;;
5989;SDS011;14149;53.562;10.032;2022-10-16T13:19:29;8.90;;;4.00;;
5989;SDS011;14149;53.562;10.032;2022-10-16T13:29:52;7.13;;;2.70;;
5989;SDS011;14149;53.562;10.032;2022-10-16T13:32:20;8.63;;;2.93;;
5989;SDS011;14149;53.562;10.032;2022-10-16T13:34:47;8.10;;;2.63;;
5989;SDS011;14149;53.562;10.032;2022-10-16T13:37:31;9.97;;;2.70;;
5989;SDS011;14149;53.562;10.032;2022-10-16T13:40:17;14.80;;;3.43;;
5989;SDS011;14149;53.562;10.032;2022-10-16T13:42:44;9.60;;;2.70;;
5989;SDS011;14149;53.562;10.032;2022-10-16T13:45:17;7.30;;;3.23;;
5989;SDS011;14149;53.562;10.032;2022-10-16T13:47:44;8.33;;;3.13;;
5989;SDS011;14149;53.562;10.032;2022-10-16T13:50:14;8.93;;;3.00;;
5989;SDS011;14149;53.562;10.032;2022-10-16T13:52:40;8.80;;;3.73;;
5989;SDS011;14149;53.562;10.032;2022-10-16T13:55:16;9.93;;;2.90;;
5989;SDS011;14149;53.562;10.032;2022-10-16T13:57:43;6.33;;;2.60;;
5989;SDS011;14149;53.562;10.032;2022-10-16T14:02:45;8.43;;;3.23;;
5989;SDS011;14149;53.562;10.032;2022-10-16T14:05:15;7.83;;;3.00;;
5989;SDS011;14149;53.562;10.032;2022-10-16T14:07:41;8.20;;;2.60;;
5989;SDS011;14149;53.562;10.032;2022-10-16T14:12:57;10.53;;;3.40;;
5989;SDS011;14149;53.562;10.032;2022-10-16T14:15:24;10.00;;;3.20;;
5989;SDS011;14149;53.562;10.032;2022-10-16T14:17:50;8.97;;;3.20;;
5989;SDS011;14149;53.562;10.032;2022-10-16T14:20:17;9.80;;;3.00;;
5989;SDS011;14149;53.562;10.032;2022-10-16T14:22:44;10.10;;;3.00;;
5989;SDS011;14149;53.562;10.032;2022-10-16T14:30:27;8.40;;;3.03;;
5989;SDS011;14149;53.562;10.032;2022-10-16T14:32:57;8.43;;;2.57;;
5989;SDS011;14149;53.562;10.032;2022-10-16T14:35:24;9.83;;;2.70;;
5989;SDS011;14149;53.562;10.032;2022-10-16T14:37:51;10.77;;;2.50;;
5989;SDS011;14149;53.562;10.032;2022-10-16T14:40:18;5.50;;;2.33;;
5989;SDS011;14149;53.562;10.032;2022-10-16T14:42:44;7.07;;;2.60;;
5989;SDS011;14149;53.562;10.032;2022-10-16T14:45:11;11.30;;;3.10;;
5989;SDS011;14149;53.562;10.032;2022-10-16T14:47:37;6.37;;;2.37;;
5989;SDS011;14149;53.562;10.032;2022-10-16T14:50:13;6.40;;;2.80;;
5989;SDS011;14149;53.562;10.032;2022-10-16T14:52:39;8.70;;;2.67;;
5989;SDS011;14149;53.562;10.032;2022-10-16T14:55:07;15.57;;;3.43;;
5989;SDS011;14149;53.562;10.032;2022-10-16T14:57:33;8.50;;;3.13;;
5989;SDS011;14149;53.562;10.032;2022-10-16T15:00:13;14.50;;;3.17;;
5989;SDS011;14149;53.562;10.032;2022-10-16T15:02:41;11.47;;;3.03;;
5989;SDS011;14149;53.562;10.032;2022-10-16T15:05:12;7.07;;;3.40;;
5989;SDS011;14149;53.562;10.032;2022-10-16T15:07:38;7.90;;;2.70;;
5989;SDS011;14149;53.562;10.032;2022-10-16T15:10:04;7.47;;;2.80;;
5989;SDS011;14149;53.562;10.032;2022-10-16T15:12:30;9.20;;;2.50;;
5989;SDS011;14149;53.562;10.032;2022-10-16T15:14:56;8.60;;;2.83;;
5989;SDS011;14149;53.562;10.032;2022-10-16T15:17:22;7.60;;;2.33;;
5989;SDS011;14149;53.562;10.032;2022-10-16T15:19:48;8.33;;;2.80;;
5989;SDS011;14149;53.562;10.032;2022-10-16T15:22:16;10.67;;;2.90;;
5989;SDS011;14149;53.562;10.032;2022-10-16T15:24:42;8.60;;;2.87;;
5989;SDS011;14149;53.562;10.032;2022-10-16T15:27:09;7.10;;;2.60;;
5989;SDS011;14149;53.562;10.032;2022-10-16T15:29:35;9.73;;;2.60;;
5989;SDS011;14149;53.562;10.032;2022-10-16T15:32:01;6.80;;;2.50;;
5989;SDS011;14149;53.562;10.032;2022-10-16T15:34:27;20.97;;;2.90;;
5989;SDS011;14149;53.562;10.032;2022-10-16T15:36:53;7.77;;;2.73;;
5989;SDS011;14149;53.562;10.032;2022-10-16T15:39:21;6.87;;;2.80;;
5989;SDS011;14149;53.562;10.032;2022-10-16T15:41:47;7.30;;;2.87;;
5989;SDS011;14149;53.562;10.032;2022-10-16T15:44:16;8.43;;;2.70;;
5989;SDS011;14149;53.562;10.032;2022-10-16T15:46:42;10.67;;;2.60;;
5989;SDS011;14149;53.562;10.032;2022-10-16T15:49:08;8.57;;;2.53;;
5989;SDS011;14149;53.562;10.032;2022-10-16T15:51:35;8.50;;;2.67;;
5989;SDS011;14149;53.562;10.032;2022-10-16T15:54:03;9.67;;;2.73;;
5989;SDS011;14149;53.562;10.032;2022-10-16T15:56:29;8.00;;;2.70;;
5989;SDS011;14149;53.562;10.032;2022-10-16T15:58:58;15.00;;;3.07;;
5989;SDS011;14149;53.562;10.032;2022-10-16T16:01:24;6.63;;;2.47;;
5989;SDS011;14149;53.562;10.032;2022-10-16T16:03:53;6.90;;;2.70;;
5989;SDS011;14149;53.562;10.032;2022-10-16T16:06:20;9.00;;;3.00;;
5989;SDS011;14149;53.562;10.032;2022-10-16T16:08:46;10.10;;;3.30;;
5989;SDS011;14149;53.562;10.032;2022-10-16T16:11:14;10.83;;;3.27;;
5989;SDS011;14149;53.562;10.032;2022-10-16T16:13:40;13.57;;;3.23;;
5989;SDS011;14149;53.562;10.032;2022-10-16T16:16:11;8.40;;;2.90;;
5989;SDS011;14149;53.562;10.032;2022-10-16T16:18:37;7.90;;;3.53;;
5989;SDS011;14149;53.562;10.032;2022-10-16T16:21:03;7.90;;;4.27;;
5989;SDS011;14149;53.562;10.032;2022-10-16T16:23:29;9.10;;;3.80;;
5989;SDS011;14149;53.562;10.032;2022-10-16T16:26:03;9.23;;;2.80;;
5989;SDS011;14149;53.562;10.032;2022-10-16T16:28:31;12.00;;;3.53;;
5989;SDS011;14149;53.562;10.032;2022-10-16T16:30:58;12.13;;;3.57;;
5989;SDS011;14149;53.562;10.032;2022-10-16T16:33:24;9.83;;;3.00;;
5989;SDS011;14149;53.562;10.032;2022-10-16T16:35:50;14.70;;;3.83;;
5989;SDS011;14149;53.562;10.032;2022-10-16T16:38:16;9.13;;;3.30;;
5989;SDS011;14149;53.562;10.032;2022-10-16T16:40:42;12.13;;;3.30;;
5989;SDS011;14149;53.562;10.032;2022-10-16T16:43:08;9.07;;;3.53;;
5989;SDS011;14149;53.562;10.032;2022-10-16T16:45:37;13.03;;;3.60;;
5989;SDS011;14149;53.562;10.032;2022-10-16T16:48:03;15.63;;;3.33;;
5989;SDS011;14149;53.562;10.032;2022-10-16T16:50:34;10.07;;;4.40;;